sensor_id;sensor_type;location;lat;lon;timestamp;pressure;altitude;pressure_sealevel;temperature;humidity
21359;BME280;13506;50.852;20.632;2023-02-22T00:00:52;98066.63;;;5.01;74.80
21359;BME280;13506;50.852;20.632;2023-02-22T00:03:23;98059.75;;;5.00;74.70
21359;BME280;13506;50.852;20.632;2023-02-22T00:05:53;98060.22;;;5.07;74.69
21359;BME280;13506;50.852;20.632;2023-02-22T00:08:23;98073.31;;;5.05;74.32
21359;BME280;13506;50.852;20.632;2023-02-22T00:10:52;98069.97;;;5.03;75.45
21359;BME280;13506;50.852;20.632;2023-02-22T00:13:21;98062.75;;;5.09;73.79
21359;BME280;13506;50.852;20.632;2023-02-22T00:15:49;98070.47;;;5.10;74.32
21359;BME280;13506;50.852;20.632;2023-02-22T00:18:18;98076.13;;;5.17;73.80
21359;BME280;13506;50.852;20.632;2023-02-22T00:20:46;98072.88;;;5.13;73.51
21359;BME280;13506;50.852;20.632;2023-02-22T00:23:17;98071.78;;;5.17;73.49
21359;BME280;13506;50.852;20.632;2023-02-22T00:25:46;98076.13;;;5.17;73.92
21359;BME280;13506;50.852;20.632;2023-02-22T00:28:17;98076.06;;;5.18;73.15
21359;BME280;13506;50.852;20.632;2023-02-22T00:30:45;98076.91;;;5.19;73.00
21359;BME280;13506;50.852;20.632;2023-02-22T00:33:14;98080.41;;;5.18;73.66
21359;BME280;13506;50.852;20.632;2023-02-22T00:35:44;98084.66;;;5.19;72.96
21359;BME280;13506;50.852;20.632;2023-02-22T00:38:13;98091.69;;;5.17;73.43
21359;BME280;13506;50.852;20.632;2023-02-22T00:40:42;98086.50;;;5.17;72.57
21359;BME280;13506;50.852;20.632;2023-02-22T00:43:10;98090.03;;;5.16;72.85
21359;BME280;13506;50.852;20.632;2023-02-22T00:45:42;98092.78;;;5.13;73.25
21359;BME280;13506;50.852;20.632;2023-02-22T00:48:10;98082.41;;;5.13;73.29
21359;BME280;13506;50.852;20.632;2023-02-22T00:50:38;98090.03;;;5.16;73.49
21359;BME280;13506;50.852;20.632;2023-02-22T00:53:09;98090.13;;;5.14;73.62
21359;BME280;13506;50.852;20.632;2023-02-22T00:55:37;98093.53;;;5.15;73.48
21359;BME280;13506;50.852;20.632;2023-02-22T00:58:06;98090.03;;;5.16;73.91
21359;BME280;13506;50.852;20.632;2023-02-22T01:00:37;98091.88;;;5.14;73.70
21359;BME280;13506;50.852;20.632;2023-02-22T01:03:10;98098.03;;;5.11;73.05
21359;BME280;13506;50.852;20.632;2023-02-22T01:05:38;98103.47;;;5.06;74.49
21359;BME280;13506;50.852;20.632;2023-02-22T01:08:08;98103.34;;;5.10;73.99
21359;BME280;13506;50.852;20.632;2023-02-22T01:10:38;98106.16;;;5.05;74.22
21359;BME280;13506;50.852;20.632;2023-02-22T01:13:07;98102.06;;;5.01;74.02
21359;BME280;13506;50.852;20.632;2023-02-22T01:15:38;98099.47;;;5.01;74.10
21359;BME280;13506;50.852;20.632;2023-02-22T01:18:09;98102.72;;;5.04;74.40
21359;BME280;13506;50.852;20.632;2023-02-22T01:20:38;98093.44;;;5.00;73.90
21359;BME280;13506;50.852;20.632;2023-02-22T01:23:07;98101.13;;;5.02;73.54
21359;BME280;13506;50.852;20.632;2023-02-22T01:25:36;98101.22;;;5.00;74.11
21359;BME280;13506;50.852;20.632;2023-02-22T01:28:07;98114.78;;;5.05;73.27
21359;BME280;13506;50.852;20.632;2023-02-22T01:30:36;98107.25;;;5.01;73.66
21359;BME280;13506;50.852;20.632;2023-02-22T01:33:06;98108.00;;;5.03;73.43
21359;BME280;13506;50.852;20.632;2023-02-22T01:35:36;98102.91;;;5.01;73.62
21359;BME280;13506;50.852;20.632;2023-02-22T01:38:06;98106.41;;;5.00;74.30
21359;BME280;13506;50.852;20.632;2023-02-22T01:40:37;98121.19;;;4.98;74.38
21359;BME280;13506;50.852;20.632;2023-02-22T01:43:15;98110.25;;;4.93;75.16
21359;BME280;13506;50.852;20.632;2023-02-22T01:45:56;98118.31;;;4.87;75.56
21359;BME280;13506;50.852;20.632;2023-02-22T01:48:36;98115.91;;;4.84;75.46
21359;BME280;13506;50.852;20.632;2023-02-22T01:51:11;98111.03;;;4.78;76.46
21359;BME280;13506;50.852;20.632;2023-02-22T01:53:44;98123.25;;;4.76;76.48
21359;BME280;13506;50.852;20.632;2023-02-22T01:56:15;98113.84;;;4.73;77.18
21359;BME280;13506;50.852;20.632;2023-02-22T01:58:47;98122.34;;;4.59;77.24
21359;BME280;13506;50.852;20.632;2023-02-22T02:01:20;98116.69;;;4.69;76.41
21359;BME280;13506;50.852;20.632;2023-02-22T02:03:50;98123.88;;;4.63;77.36
21359;BME280;13506;50.852;20.632;2023-02-22T02:06:25;98134.06;;;4.66;76.30
21359;BME280;13506;50.852;20.632;2023-02-22T02:09:00;98127.16;;;4.67;76.81
21359;BME280;13506;50.852;20.632;2023-02-22T02:11:29;98123.56;;;4.70;77.04
21359;BME280;13506;50.852;20.632;2023-02-22T02:14:00;98133.09;;;4.69;77.20
21359;BME280;13506;50.852;20.632;2023-02-22T02:16:37;98127.22;;;4.65;77.56
21359;BME280;13506;50.852;20.632;2023-02-22T02:19:14;98129.72;;;4.67;76.97
21359;BME280;13506;50.852;20.632;2023-02-22T02:22:25;98135.69;;;4.69;76.80
21359;BME280;13506;50.852;20.632;2023-02-22T02:31:25;98133.09;;;4.69;77.13
21359;BME280;13506;50.852;20.632;2023-02-22T02:34:03;98133.91;;;4.70;76.53
21359;BME280;13506;50.852;20.632;2023-02-22T02:36:40;98129.63;;;4.69;77.07
21359;BME280;13506;50.852;20.632;2023-02-22T02:39:17;98134.22;;;4.63;76.99
21359;BME280;13506;50.852;20.632;2023-02-22T02:41:49;98137.66;;;4.64;78.06
21359;BME280;13506;50.852;20.632;2023-02-22T02:44:25;98142.75;;;4.65;77.85
21359;BME280;13506;50.852;20.632;2023-02-22T02:46:58;98140.16;;;4.65;77.11
21359;BME280;13506;50.852;20.632;2023-02-22T02:49:30;98136.19;;;4.58;77.66
21359;BME280;13506;50.852;20.632;2023-02-22T02:52:03;98138.72;;;4.60;77.64
21359;BME280;13506;50.852;20.632;2023-02-22T02:54:32;98132.94;;;4.55;77.92
21359;BME280;13506;50.852;20.632;2023-02-22T02:57:02;98139.13;;;4.52;78.49
21359;BME280;13506;50.852;20.632;2023-02-22T02:59:33;98140.22;;;4.48;77.99
21359;BME280;13506;50.852;20.632;2023-02-22T03:02:32;98140.09;;;4.50;77.30
21359;BME280;13506;50.852;20.632;2023-02-22T03:05:17;98140.03;;;4.51;78.35
21359;BME280;13506;50.852;20.632;2023-02-22T03:07:55;98137.19;;;4.56;76.85
21359;BME280;13506;50.852;20.632;2023-02-22T03:10:42;98140.56;;;4.58;77.04
21359;BME280;13506;50.852;20.632;2023-02-22T03:13:18;98148.25;;;4.59;77.42
21359;BME280;13506;50.852;20.632;2023-02-22T03:15:55;98150.78;;;4.61;77.61
21359;BME280;13506;50.852;20.632;2023-02-22T03:18:33;98154.13;;;4.63;77.02
21359;BME280;13506;50.852;20.632;2023-02-22T03:21:20;98150.91;;;4.58;76.85
21359;BME280;13506;50.852;20.632;2023-02-22T03:24:00;98159.22;;;4.47;78.16
21359;BME280;13506;50.852;20.632;2023-02-22T03:26:36;98150.41;;;4.51;77.66
21359;BME280;13506;50.852;20.632;2023-02-22T03:29:10;98158.16;;;4.51;77.64
21359;BME280;13506;50.852;20.632;2023-02-22T03:31:45;98154.56;;;4.54;77.21
21359;BME280;13506;50.852;20.632;2023-02-22T03:34:19;98160.75;;;4.51;78.04
21359;BME280;13506;50.852;20.632;2023-02-22T03:36:55;98157.03;;;4.57;76.95
21359;BME280;13506;50.852;20.632;2023-02-22T03:39:26;98151.09;;;4.55;78.16
21359;BME280;13506;50.852;20.632;2023-02-22T03:44:28;98151.84;;;4.57;76.66
21359;BME280;13506;50.852;20.632;2023-02-22T03:47:01;98142.31;;;4.57;77.09
21359;BME280;13506;50.852;20.632;2023-02-22T03:49:36;98154.34;;;4.58;76.85
21359;BME280;13506;50.852;20.632;2023-02-22T03:52:07;98157.69;;;4.60;76.84
21359;BME280;13506;50.852;20.632;2023-02-22T03:54:38;98163.09;;;4.56;77.89
21359;BME280;13506;50.852;20.632;2023-02-22T03:57:09;98167.28;;;4.58;76.91
21359;BME280;13506;50.852;20.632;2023-02-22T03:59:43;98158.69;;;4.58;76.95
21359;BME280;13506;50.852;20.632;2023-02-22T04:02:11;98158.63;;;4.59;76.63
21359;BME280;13506;50.852;20.632;2023-02-22T04:04:39;98161.13;;;4.61;77.20
21359;BME280;13506;50.852;20.632;2023-02-22T04:07:08;98162.09;;;4.58;76.67
21359;BME280;13506;50.852;20.632;2023-02-22T04:09:38;98156.94;;;4.58;77.15
21359;BME280;13506;50.852;20.632;2023-02-22T04:12:07;98158.09;;;4.53;77.91
21359;BME280;13506;50.852;20.632;2023-02-22T04:14:50;98156.56;;;4.49;77.38
21359;BME280;13506;50.852;20.632;2023-02-22T04:17:18;98157.28;;;4.52;76.76
21359;BME280;13506;50.852;20.632;2023-02-22T04:19:47;98159.41;;;4.44;78.50
21359;BME280;13506;50.852;20.632;2023-02-22T04:22:16;98173.88;;;4.48;77.85
21359;BME280;13506;50.852;20.632;2023-02-22T04:24:45;98160.16;;;4.46;77.96
21359;BME280;13506;50.852;20.632;2023-02-22T04:27:16;98155.75;;;4.48;77.78
21359;BME280;13506;50.852;20.632;2023-02-22T04:29:45;98168.00;;;4.44;77.20
21359;BME280;13506;50.852;20.632;2023-02-22T04:32:13;98173.94;;;4.47;76.73
21359;BME280;13506;50.852;20.632;2023-02-22T04:34:41;98166.41;;;4.42;77.27
21359;BME280;13506;50.852;20.632;2023-02-22T04:37:10;98161.06;;;4.45;77.54
21359;BME280;13506;50.852;20.632;2023-02-22T04:39:40;98167.25;;;4.42;77.87
21359;BME280;13506;50.852;20.632;2023-02-22T04:42:07;98165.41;;;4.44;78.36
21359;BME280;13506;50.852;20.632;2023-02-22T04:44:35;98175.06;;;4.41;78.08
21359;BME280;13506;50.852;20.632;2023-02-22T04:47:04;98173.25;;;4.43;77.22
21359;BME280;13506;50.852;20.632;2023-02-22T04:49:33;98172.25;;;4.45;77.88
21359;BME280;13506;50.852;20.632;2023-02-22T04:52:01;98169.75;;;4.44;77.58
21359;BME280;13506;50.852;20.632;2023-02-22T04:54:34;98183.47;;;4.46;77.50
21359;BME280;13506;50.852;20.632;2023-02-22T04:57:04;98182.63;;;4.45;77.80
21359;BME280;13506;50.852;20.632;2023-02-22T04:59:33;98173.13;;;4.46;77.29
21359;BME280;13506;50.852;20.632;2023-02-22T05:02:02;98179.25;;;4.43;77.23
21359;BME280;13506;50.852;20.632;2023-02-22T05:04:30;98183.59;;;4.43;78.62
21359;BME280;13506;50.852;20.632;2023-02-22T05:06:58;98187.91;;;4.44;77.47
21359;BME280;13506;50.852;20.632;2023-02-22T05:09:25;98179.25;;;4.43;77.86
21359;BME280;13506;50.852;20.632;2023-02-22T05:11:53;98181.25;;;4.38;77.87
21359;BME280;13506;50.852;20.632;2023-02-22T05:14:23;98187.19;;;4.23;80.16
21359;BME280;13506;50.852;20.632;2023-02-22T05:16:53;98188.09;;;4.22;79.97
21359;BME280;13506;50.852;20.632;2023-02-22T05:19:22;98184.91;;;4.17;79.59
21359;BME280;13506;50.852;20.632;2023-02-22T05:21:49;98185.59;;;4.20;80.41
21359;BME280;13506;50.852;20.632;2023-02-22T05:24:17;98196.16;;;4.16;80.41
21359;BME280;13506;50.852;20.632;2023-02-22T05:26:45;98202.63;;;4.07;81.18
21359;BME280;13506;50.852;20.632;2023-02-22T05:29:13;98204.59;;;4.02;81.45
21359;BME280;13506;50.852;20.632;2023-02-22T05:31:43;98209.09;;;3.98;81.69
21359;BME280;13506;50.852;20.632;2023-02-22T05:34:10;98204.91;;;3.96;81.90
21359;BME280;13506;50.852;20.632;2023-02-22T05:36:39;98213.84;;;3.89;82.68
21359;BME280;13506;50.852;20.632;2023-02-22T05:39:07;98213.19;;;3.85;83.79
21359;BME280;13506;50.852;20.632;2023-02-22T05:41:35;98216.25;;;3.93;82.11
21359;BME280;13506;50.852;20.632;2023-02-22T05:44:04;98221.13;;;3.99;80.88
21359;BME280;13506;50.852;20.632;2023-02-22T05:46:32;98222.03;;;3.98;81.75
21359;BME280;13506;50.852;20.632;2023-02-22T05:49:01;98224.78;;;3.95;81.28
21359;BME280;13506;50.852;20.632;2023-02-22T05:51:29;98233.03;;;4.03;81.50
21359;BME280;13506;50.852;20.632;2023-02-22T05:53:57;98235.50;;;4.05;81.57
21359;BME280;13506;50.852;20.632;2023-02-22T05:56:27;98225.03;;;4.08;80.46
21359;BME280;13506;50.852;20.632;2023-02-22T05:58:56;98236.28;;;4.07;82.10
21359;BME280;13506;50.852;20.632;2023-02-22T06:01:24;98241.31;;;4.10;81.39
21359;BME280;13506;50.852;20.632;2023-02-22T06:03:52;98243.06;;;4.10;81.78
21359;BME280;13506;50.852;20.632;2023-02-22T06:06:21;98251.53;;;4.13;81.94
21359;BME280;13506;50.852;20.632;2023-02-22T06:08:49;98251.16;;;4.21;81.56
21359;BME280;13506;50.852;20.632;2023-02-22T06:11:17;98249.34;;;4.23;81.17
21359;BME280;13506;50.852;20.632;2023-02-22T06:13:49;98251.06;;;4.22;80.78
21359;BME280;13506;50.852;20.632;2023-02-22T06:16:17;98257.19;;;4.21;82.14
21359;BME280;13506;50.852;20.632;2023-02-22T06:18:46;98257.53;;;4.14;82.40
21359;BME280;13506;50.852;20.632;2023-02-22T06:21:14;98262.41;;;4.20;82.38
21359;BME280;13506;50.852;20.632;2023-02-22T06:23:44;98260.13;;;4.14;82.34
21359;BME280;13506;50.852;20.632;2023-02-22T06:26:15;98270.69;;;4.09;83.06
21359;BME280;13506;50.852;20.632;2023-02-22T06:28:44;98264.75;;;4.07;82.53
21359;BME280;13506;50.852;20.632;2023-02-22T06:31:12;98275.81;;;4.11;82.78
21359;BME280;13506;50.852;20.632;2023-02-22T06:33:40;98277.69;;;4.07;83.65
21359;BME280;13506;50.852;20.632;2023-02-22T06:36:08;98283.03;;;4.04;82.85
21359;BME280;13506;50.852;20.632;2023-02-22T06:38:37;98280.22;;;4.09;82.41
21359;BME280;13506;50.852;20.632;2023-02-22T06:41:07;98288.63;;;3.95;84.31
21359;BME280;13506;50.852;20.632;2023-02-22T06:43:36;98285.47;;;4.07;83.63
21359;BME280;13506;50.852;20.632;2023-02-22T06:46:04;98292.97;;;3.94;83.89
21359;BME280;13506;50.852;20.632;2023-02-22T06:48:32;98288.69;;;4.12;82.79
21359;BME280;13506;50.852;20.632;2023-02-22T06:50:59;98296.06;;;4.20;82.80
21359;BME280;13506;50.852;20.632;2023-02-22T06:53:27;98291.75;;;4.20;82.92
21359;BME280;13506;50.852;20.632;2023-02-22T06:55:55;98298.75;;;4.18;83.54
21359;BME280;13506;50.852;20.632;2023-02-22T06:58:24;98302.84;;;4.22;82.93
21359;BME280;13506;50.852;20.632;2023-02-22T07:00:52;98301.41;;;4.17;83.63
21359;BME280;13506;50.852;20.632;2023-02-22T07:03:21;98295.25;;;4.19;83.38
21359;BME280;13506;50.852;20.632;2023-02-22T07:05:49;98304.31;;;4.28;82.10
21359;BME280;13506;50.852;20.632;2023-02-22T07:08:17;98310.91;;;4.35;81.92
21359;BME280;13506;50.852;20.632;2023-02-22T07:10:45;98304.56;;;4.41;82.08
21359;BME280;13506;50.852;20.632;2023-02-22T07:13:15;98311.34;;;4.43;82.45
21359;BME280;13506;50.852;20.632;2023-02-22T07:15:45;98310.69;;;4.57;81.66
21359;BME280;13506;50.852;20.632;2023-02-22T07:18:13;98311.94;;;4.68;81.18
21359;BME280;13506;50.852;20.632;2023-02-22T07:20:41;98309.66;;;4.79;80.73
21359;BME280;13506;50.852;20.632;2023-02-22T07:23:12;98295.81;;;4.97;80.63
21359;BME280;13506;50.852;20.632;2023-02-22T07:25:40;98302.44;;;5.20;79.87
21359;BME280;13506;50.852;20.632;2023-02-22T07:28:08;98306.25;;;5.46;78.55
21359;BME280;13506;50.852;20.632;2023-02-22T07:30:37;98306.13;;;5.65;76.28
21359;BME280;13506;50.852;20.632;2023-02-22T07:33:08;98294.09;;;5.80;76.22
21359;BME280;13506;50.852;20.632;2023-02-22T07:35:38;98305.34;;;5.97;74.52
21359;BME280;13506;50.852;20.632;2023-02-22T07:38:09;98287.56;;;6.37;74.68
21359;BME280;13506;50.852;20.632;2023-02-22T07:40:38;98297.56;;;7.19;71.43
21359;BME280;13506;50.852;20.632;2023-02-22T07:43:15;98285.66;;;7.44;68.12
21359;BME280;13506;50.852;20.632;2023-02-22T07:45:43;98288.72;;;7.50;67.17
21359;BME280;13506;50.852;20.632;2023-02-22T07:48:14;98293.03;;;7.52;66.86
21359;BME280;13506;50.852;20.632;2023-02-22T07:50:43;98294.03;;;7.35;65.11
21359;BME280;13506;50.852;20.632;2023-02-22T07:53:14;98310.66;;;7.18;65.02
21359;BME280;13506;50.852;20.632;2023-02-22T07:55:43;98301.88;;;6.90;64.14
21359;BME280;13506;50.852;20.632;2023-02-22T07:58:13;98297.34;;;6.94;65.85
21359;BME280;13506;50.852;20.632;2023-02-22T08:00:41;98299.19;;;6.92;66.98
21359;BME280;13506;50.852;20.632;2023-02-22T08:03:14;98302.72;;;6.75;65.93
21359;BME280;13506;50.852;20.632;2023-02-22T08:05:45;98306.84;;;7.09;66.34
21359;BME280;13506;50.852;20.632;2023-02-22T08:08:13;98303.03;;;7.15;65.60
21359;BME280;13506;50.852;20.632;2023-02-22T08:10:42;98302.31;;;7.13;64.12
21359;BME280;13506;50.852;20.632;2023-02-22T08:13:10;98306.94;;;7.22;63.76
21359;BME280;13506;50.852;20.632;2023-02-22T08:15:39;98306.31;;;7.33;64.14
21359;BME280;13506;50.852;20.632;2023-02-22T08:18:14;98305.09;;;7.53;63.64
21359;BME280;13506;50.852;20.632;2023-02-22T08:20:45;98314.41;;;7.71;62.19
21359;BME280;13506;50.852;20.632;2023-02-22T08:23:15;98307.63;;;7.83;62.93
21359;BME280;13506;50.852;20.632;2023-02-22T08:25:43;98303.75;;;8.03;60.57
21359;BME280;13506;50.852;20.632;2023-02-22T08:28:13;98314.44;;;8.13;60.02
21359;BME280;13506;50.852;20.632;2023-02-22T08:30:42;98314.25;;;8.16;58.20
21359;BME280;13506;50.852;20.632;2023-02-22T08:33:12;98315.63;;;8.21;59.43
21359;BME280;13506;50.852;20.632;2023-02-22T08:35:43;98316.81;;;8.30;58.70
21359;BME280;13506;50.852;20.632;2023-02-22T08:38:17;98322.69;;;8.34;57.02
21359;BME280;13506;50.852;20.632;2023-02-22T08:40:47;98326.84;;;8.36;57.71
21359;BME280;13506;50.852;20.632;2023-02-22T08:43:16;98330.22;;;8.38;56.44
21359;BME280;13506;50.852;20.632;2023-02-22T08:45:45;98330.97;;;8.40;57.00
21359;BME280;13506;50.852;20.632;2023-02-22T08:48:14;98330.28;;;8.51;56.50
21359;BME280;13506;50.852;20.632;2023-02-22T08:50:43;98327.19;;;8.59;55.27
21359;BME280;13506;50.852;20.632;2023-02-22T08:53:13;98332.84;;;8.65;54.61
21359;BME280;13506;50.852;20.632;2023-02-22T08:55:41;98323.03;;;8.69;54.64
21359;BME280;13506;50.852;20.632;2023-02-22T08:58:10;98333.19;;;8.74;54.94
21359;BME280;13506;50.852;20.632;2023-02-22T09:00:38;98331.84;;;8.81;54.18
21359;BME280;13506;50.852;20.632;2023-02-22T09:03:08;98332.38;;;8.99;54.44
21359;BME280;13506;50.852;20.632;2023-02-22T09:05:38;98326.03;;;9.16;54.40
21359;BME280;13506;50.852;20.632;2023-02-22T09:08:08;98327.31;;;9.23;53.13
21359;BME280;13506;50.852;20.632;2023-02-22T09:10:36;98323.56;;;9.27;52.61
21359;BME280;13506;50.852;20.632;2023-02-22T09:13:04;98322.94;;;9.23;53.41
21359;BME280;13506;50.852;20.632;2023-02-22T09:15:33;98329.13;;;9.35;52.92
21359;BME280;13506;50.852;20.632;2023-02-22T09:18:02;98323.91;;;9.35;51.13
21359;BME280;13506;50.852;20.632;2023-02-22T09:20:31;98321.69;;;9.29;49.95
21359;BME280;13506;50.852;20.632;2023-02-22T09:23:02;98338.25;;;9.02;48.27
21359;BME280;13506;50.852;20.632;2023-02-22T09:25:32;98340.53;;;8.67;49.43
21359;BME280;13506;50.852;20.632;2023-02-22T09:28:01;98333.16;;;8.05;48.67
21359;BME280;13506;50.852;20.632;2023-02-22T09:30:31;98334.47;;;7.98;49.40
21359;BME280;13506;50.852;20.632;2023-02-22T09:33:03;98334.09;;;7.61;50.15
21359;BME280;13506;50.852;20.632;2023-02-22T09:35:32;98329.28;;;7.55;50.04
21359;BME280;13506;50.852;20.632;2023-02-22T09:38:03;98336.88;;;7.43;51.48
21359;BME280;13506;50.852;20.632;2023-02-22T09:40:35;98332.72;;;7.41;51.52
21359;BME280;13506;50.852;20.632;2023-02-22T09:43:25;98347.88;;;7.34;50.70
21359;BME280;13506;50.852;20.632;2023-02-22T09:46:08;98340.81;;;7.36;50.83
21359;BME280;13506;50.852;20.632;2023-02-22T09:48:57;98341.31;;;7.27;50.69
21359;BME280;13506;50.852;20.632;2023-02-22T09:51:32;98338.34;;;7.19;51.09
21359;BME280;13506;50.852;20.632;2023-02-22T09:54:05;98336.47;;;7.06;50.75
21359;BME280;13506;50.852;20.632;2023-02-22T09:56:42;98337.78;;;7.14;52.32
21359;BME280;13506;50.852;20.632;2023-02-22T09:59:16;98343.41;;;7.06;51.79
21359;BME280;13506;50.852;20.632;2023-02-22T10:01:48;98329.50;;;7.07;51.49
21359;BME280;13506;50.852;20.632;2023-02-22T10:04:32;98333.13;;;7.04;49.87
21359;BME280;13506;50.852;20.632;2023-02-22T10:07:10;98330.44;;;7.20;51.09
21359;BME280;13506;50.852;20.632;2023-02-22T10:09:43;98329.63;;;7.20;51.56
21359;BME280;13506;50.852;20.632;2023-02-22T10:12:18;98333.72;;;7.24;51.85
21359;BME280;13506;50.852;20.632;2023-02-22T10:17:53;98327.78;;;7.36;51.46
21359;BME280;13506;50.852;20.632;2023-02-22T10:20:38;98326.94;;;7.36;51.56
21359;BME280;13506;50.852;20.632;2023-02-22T10:23:16;98323.94;;;7.13;50.02
21359;BME280;13506;50.852;20.632;2023-02-22T10:25:53;98322.38;;;7.25;51.00
21359;BME280;13506;50.852;20.632;2023-02-22T10:28:29;98324.06;;;7.26;51.20
21359;BME280;13506;50.852;20.632;2023-02-22T10:31:04;98313.72;;;7.24;50.88
21359;BME280;13506;50.852;20.632;2023-02-22T10:33:37;98315.78;;;7.48;50.75
21359;BME280;13506;50.852;20.632;2023-02-22T10:36:17;98320.25;;;7.75;50.03
21359;BME280;13506;50.852;20.632;2023-02-22T10:38:52;98326.84;;;7.95;50.11
21359;BME280;13506;50.852;20.632;2023-02-22T10:41:25;98334.41;;;8.26;49.35
21359;BME280;13506;50.852;20.632;2023-02-22T10:43:55;98311.69;;;8.28;48.67
21359;BME280;13506;50.852;20.632;2023-02-22T10:46:26;98330.00;;;8.00;48.20
21359;BME280;13506;50.852;20.632;2023-02-22T10:49:01;98323.13;;;7.99;48.75
21359;BME280;13506;50.852;20.632;2023-02-22T10:51:33;98319.88;;;7.95;48.40
21359;BME280;13506;50.852;20.632;2023-02-22T10:54:19;98319.44;;;8.16;49.12
21359;BME280;13506;50.852;20.632;2023-02-22T10:56:51;98310.03;;;8.27;48.32
21359;BME280;13506;50.852;20.632;2023-02-22T10:59:31;98318.63;;;8.15;48.03
21359;BME280;13506;50.852;20.632;2023-02-22T11:02:00;98318.25;;;8.07;47.70
21359;BME280;13506;50.852;20.632;2023-02-22T11:04:45;98324.81;;;8.00;48.21
21359;BME280;13506;50.852;20.632;2023-02-22T11:07:21;98324.34;;;7.79;48.68
21359;BME280;13506;50.852;20.632;2023-02-22T11:09:52;98315.13;;;7.59;48.93
21359;BME280;13506;50.852;20.632;2023-02-22T11:12:27;98314.88;;;7.49;49.47
21359;BME280;13506;50.852;20.632;2023-02-22T11:14:56;98312.91;;;7.38;49.86
21359;BME280;13506;50.852;20.632;2023-02-22T11:17:30;98316.25;;;7.26;50.30
21359;BME280;13506;50.852;20.632;2023-02-22T11:19:59;98322.47;;;7.23;50.75
21359;BME280;13506;50.852;20.632;2023-02-22T11:22:30;98313.81;;;7.08;50.40
21359;BME280;13506;50.852;20.632;2023-02-22T11:25:05;98324.66;;;7.01;50.83
21359;BME280;13506;50.852;20.632;2023-02-22T11:27:36;98317.78;;;7.00;51.21
21359;BME280;13506;50.852;20.632;2023-02-22T11:30:19;98320.97;;;6.89;51.79
21359;BME280;13506;50.852;20.632;2023-02-22T11:32:53;98320.81;;;6.92;51.31
21359;BME280;13506;50.852;20.632;2023-02-22T11:35:38;98320.56;;;6.97;51.42
21359;BME280;13506;50.852;20.632;2023-02-22T11:38:18;98321.38;;;6.97;50.94
21359;BME280;13506;50.852;20.632;2023-02-22T11:41:10;98319.25;;;6.89;50.54
21359;BME280;13506;50.852;20.632;2023-02-22T11:43:42;98315.97;;;6.86;50.41
21359;BME280;13506;50.852;20.632;2023-02-22T11:46:16;98328.22;;;6.84;50.51
21359;BME280;13506;50.852;20.632;2023-02-22T11:48:56;98320.56;;;6.97;50.43
21359;BME280;13506;50.852;20.632;2023-02-22T11:51:39;98321.97;;;7.02;49.62
21359;BME280;13506;50.852;20.632;2023-02-22T11:57:26;98329.06;;;7.29;48.41
21359;BME280;13506;50.852;20.632;2023-02-22T12:00:11;98317.47;;;7.35;48.03
21359;BME280;13506;50.852;20.632;2023-02-22T12:02:56;98320.16;;;7.33;47.78
21359;BME280;13506;50.852;20.632;2023-02-22T12:05:46;98321.13;;;7.46;48.74
21359;BME280;13506;50.852;20.632;2023-02-22T12:08:32;98317.84;;;7.57;48.54
21359;BME280;13506;50.852;20.632;2023-02-22T12:11:09;98314.59;;;7.68;48.77
21359;BME280;13506;50.852;20.632;2023-02-22T12:14:00;98317.16;;;7.82;48.85
21359;BME280;13506;50.852;20.632;2023-02-22T12:16:44;98317.28;;;7.81;48.74
21359;BME280;13506;50.852;20.632;2023-02-22T12:19:29;98316.00;;;7.59;47.61
21359;BME280;13506;50.852;20.632;2023-02-22T12:22:06;98315.53;;;7.38;47.81
21359;BME280;13506;50.852;20.632;2023-02-22T12:24:38;98319.78;;;7.39;47.92
21359;BME280;13506;50.852;20.632;2023-02-22T12:27:14;98314.50;;;7.41;48.99
21359;BME280;13506;50.852;20.632;2023-02-22T12:29:47;98317.94;;;7.41;49.54
21359;BME280;13506;50.852;20.632;2023-02-22T12:32:27;98308.94;;;7.47;49.50
21359;BME280;13506;50.852;20.632;2023-02-22T12:35:02;98308.25;;;7.43;48.81
21359;BME280;13506;50.852;20.632;2023-02-22T12:37:38;98314.88;;;7.49;49.07
21359;BME280;13506;50.852;20.632;2023-02-22T12:40:19;98316.16;;;7.56;49.41
21359;BME280;13506;50.852;20.632;2023-02-22T12:42:55;98308.44;;;7.55;48.52
21359;BME280;13506;50.852;20.632;2023-02-22T12:45:30;98322.41;;;7.54;48.43
21359;BME280;13506;50.852;20.632;2023-02-22T12:48:20;98312.38;;;7.62;48.31
21359;BME280;13506;50.852;20.632;2023-02-22T12:50:55;98306.22;;;7.63;48.15
21359;BME280;13506;50.852;20.632;2023-02-22T12:53:30;98317.75;;;7.44;48.79
21359;BME280;13506;50.852;20.632;2023-02-22T12:56:11;98321.06;;;7.18;49.45
21359;BME280;13506;50.852;20.632;2023-02-22T12:58:48;98312.91;;;7.24;49.88
21359;BME280;13506;50.852;20.632;2023-02-22T13:01:21;98301.28;;;7.15;50.04
21359;BME280;13506;50.852;20.632;2023-02-22T13:03:53;98318.19;;;7.22;50.17
21359;BME280;13506;50.852;20.632;2023-02-22T13:06:35;98315.59;;;7.22;50.28
21359;BME280;13506;50.852;20.632;2023-02-22T13:09:22;98314.47;;;7.26;50.49
21359;BME280;13506;50.852;20.632;2023-02-22T13:12:00;98310.78;;;7.45;50.58
21359;BME280;13506;50.852;20.632;2023-02-22T13:14:52;98314.06;;;7.48;50.60
21359;BME280;13506;50.852;20.632;2023-02-22T13:17:31;98319.41;;;7.45;50.50
21359;BME280;13506;50.852;20.632;2023-02-22T13:20:07;98311.63;;;7.60;50.19
21359;BME280;13506;50.852;20.632;2023-02-22T13:22:46;98308.66;;;7.80;49.78
21359;BME280;13506;50.852;20.632;2023-02-22T13:25:20;98312.28;;;8.19;49.17
21359;BME280;13506;50.852;20.632;2023-02-22T13:27:57;98309.22;;;8.54;48.34
21359;BME280;13506;50.852;20.632;2023-02-22T13:30:34;98307.63;;;8.79;47.86
21359;BME280;13506;50.852;20.632;2023-02-22T13:33:28;98308.63;;;9.03;48.00
21359;BME280;13506;50.852;20.632;2023-02-22T13:36:08;98303.28;;;9.18;46.42
21359;BME280;13506;50.852;20.632;2023-02-22T13:39:04;98301.41;;;9.20;46.50
21359;BME280;13506;50.852;20.632;2023-02-22T13:41:49;98299.84;;;9.04;46.23
21359;BME280;13506;50.852;20.632;2023-02-22T13:48:04;98313.63;;;8.66;46.77